createdAt,value
2023-05-04T00:02:03.461Z,44.04
2023-05-04T00:04:30.002Z,44.09
2023-05-04T00:06:56.419Z,44.19
2023-05-04T00:09:22.835Z,44.13
2023-05-04T00:11:49.260Z,44.12
2023-05-04T00:14:15.706Z,44.24
2023-05-04T00:16:42.158Z,44.32
2023-05-04T00:19:08.598Z,44.41
2023-05-04T00:21:35.093Z,44.40
2023-05-04T00:24:02.349Z,44.27
2023-05-04T00:26:28.876Z,44.24
2023-05-04T00:28:55.417Z,44.25
2023-05-04T00:31:22.122Z,44.32
2023-05-04T00:33:48.556Z,44.15
2023-05-04T00:36:14.987Z,44.29
2023-05-04T00:38:51.956Z,45.47
2023-05-04T00:41:19.669Z,44.46
2023-05-04T00:43:46.765Z,44.36
2023-05-04T00:46:14.039Z,44.41
2023-05-04T00:48:48.679Z,45.47
2023-05-04T00:51:16.980Z,44.81
2023-05-04T00:53:44.036Z,44.61
2023-05-04T00:56:11.071Z,44.73
2023-05-04T00:58:37.444Z,44.62
2023-05-04T01:01:04.107Z,44.75
2023-05-04T01:03:31.518Z,44.96
2023-05-04T01:06:22.327Z,45.79
2023-05-04T01:09:03.872Z,45.86
2023-05-04T01:11:58.257Z,45.31
2023-05-04T01:14:25.310Z,44.70
2023-05-04T01:16:58.566Z,45.86
2023-05-04T01:19:27.598Z,45.04
2023-05-04T01:21:54.012Z,45.23
2023-05-04T01:24:21.044Z,45.29
2023-05-04T01:26:52.286Z,45.64
2023-05-04T01:29:27.577Z,46.27
2023-05-04T01:31:55.670Z,45.44
2023-05-04T01:34:22.602Z,45.42
2023-05-04T01:36:49.517Z,45.54
2023-05-04T01:39:16.027Z,45.61
2023-05-04T01:41:42.708Z,45.51
2023-05-04T01:44:09.232Z,45.89
2023-05-04T01:46:35.761Z,45.99
2023-05-04T01:49:02.348Z,46.04
2023-05-04T01:51:28.806Z,45.94
2023-05-04T01:53:55.266Z,45.99
2023-05-04T01:56:22.193Z,45.96
2023-05-04T01:58:48.733Z,46.05
2023-05-04T02:01:15.250Z,46.18
2023-05-04T02:03:42.071Z,46.16
2023-05-04T02:06:08.704Z,46.47
2023-05-04T02:08:35.187Z,46.13
2023-05-04T02:11:01.556Z,46.17
2023-05-04T02:13:28.017Z,46.43
2023-05-04T02:15:54.625Z,46.50
2023-05-04T02:18:21.112Z,46.67
2023-05-04T02:20:47.583Z,46.76
2023-05-04T02:23:13.998Z,46.37
2023-05-04T02:25:41.689Z,46.64
2023-05-04T02:28:08.276Z,46.53
2023-05-04T02:30:34.778Z,46.82
2023-05-04T02:33:01.512Z,46.85
2023-05-04T02:35:28.077Z,47.10
2023-05-04T02:37:54.561Z,47.17
2023-05-04T02:40:20.952Z,47.28
2023-05-04T02:42:47.473Z,47.20
2023-05-04T02:45:14.040Z,47.36
2023-05-04T02:47:40.638Z,47.36
2023-05-04T02:50:07.913Z,47.53
2023-05-04T02:52:34.632Z,47.52
2023-05-04T02:55:03.108Z,47.81
2023-05-04T02:57:29.560Z,47.86
2023-05-04T02:59:56.045Z,47.79
2023-05-04T03:02:22.515Z,47.70
2023-05-04T03:04:49.043Z,47.79
2023-05-04T03:07:15.537Z,48.23
2023-05-04T03:09:42.050Z,47.95
2023-05-04T03:12:08.580Z,47.82
2023-05-04T03:14:35.101Z,47.81
2023-05-04T03:17:01.555Z,48.12
2023-05-04T03:19:27.970Z,48.37
2023-05-04T03:21:54.509Z,48.37
2023-05-04T03:24:21.013Z,48.21
2023-05-04T03:26:47.702Z,48.30
2023-05-04T03:29:14.249Z,48.29
2023-05-04T03:31:40.784Z,48.48
2023-05-04T03:34:09.605Z,48.54
2023-05-04T03:36:36.256Z,48.54
2023-05-04T03:39:03.056Z,48.82
2023-05-04T03:41:29.602Z,48.79
2023-05-04T03:43:56.138Z,48.61
2023-05-04T03:46:22.583Z,48.82
2023-05-04T03:48:49.145Z,48.88
2023-05-04T03:51:15.675Z,48.88
2023-05-04T03:53:43.441Z,49.15
2023-05-04T03:56:11.216Z,49.06
2023-05-04T03:58:37.806Z,48.97
2023-05-04T04:01:04.554Z,49.10
2023-05-04T04:03:31.475Z,49.13
2023-05-04T04:05:58.024Z,49.31
2023-05-04T04:08:24.801Z,49.55
2023-05-04T04:10:51.358Z,49.34
2023-05-04T04:13:17.906Z,49.54
2023-05-04T04:15:46.419Z,49.57
2023-05-04T04:18:13.102Z,49.74
2023-05-04T04:20:39.518Z,49.63
2023-05-04T04:23:06.003Z,49.64
2023-05-04T04:25:32.551Z,49.81
2023-05-04T04:27:59.009Z,49.55
2023-05-04T04:30:25.756Z,50.11
2023-05-04T04:32:52.333Z,49.99
2023-05-04T04:35:18.872Z,50.28
2023-05-04T04:37:45.315Z,49.99
2023-05-04T04:40:13.250Z,50.17
2023-05-04T04:42:39.731Z,50.21
2023-05-04T04:45:07.040Z,50.29
2023-05-04T04:47:33.925Z,50.05
2023-05-04T04:50:00.414Z,50.55
2023-05-04T04:52:26.968Z,50.68
2023-05-04T04:54:53.406Z,50.44
2023-05-04T04:57:20.031Z,50.76
2023-05-04T04:59:46.377Z,50.69
2023-05-04T05:02:12.893Z,50.53
2023-05-04T05:04:40.872Z,50.56
2023-05-04T05:07:10.461Z,50.87
2023-05-04T05:09:37.546Z,51.00
2023-05-04T05:12:05.262Z,50.86
2023-05-04T05:14:31.969Z,50.74
2023-05-04T05:16:59.510Z,50.84
2023-05-04T05:19:26.154Z,50.76
2023-05-04T05:21:53.022Z,50.74
2023-05-04T05:24:19.622Z,50.84
2023-05-04T05:26:46.216Z,50.63
2023-05-04T05:29:12.728Z,50.83
2023-05-04T05:31:39.351Z,50.70
2023-05-04T05:34:05.949Z,50.78
2023-05-04T05:36:32.611Z,51.06
2023-05-04T05:38:59.188Z,50.57
2023-05-04T05:41:25.803Z,50.74
2023-05-04T05:43:52.259Z,50.73
2023-05-04T05:46:18.923Z,50.96
2023-05-04T05:48:45.483Z,50.66
2023-05-04T05:51:12.061Z,50.78
2023-05-04T05:56:06.430Z,51.06
2023-05-04T05:58:32.816Z,51.01
2023-05-04T06:00:59.346Z,51.16
2023-05-04T06:03:26.048Z,50.99
2023-05-04T06:05:52.636Z,51.00
2023-05-04T06:08:19.015Z,51.37
2023-05-04T06:10:45.967Z,51.17
2023-05-04T06:13:12.499Z,51.23
2023-05-04T06:15:39.107Z,51.14
2023-05-04T06:18:05.585Z,51.46
2023-05-04T06:20:32.259Z,51.23
2023-05-04T06:22:58.661Z,51.17
2023-05-04T06:25:25.294Z,51.18
2023-05-04T06:27:51.670Z,51.29
2023-05-04T06:30:18.582Z,51.39
2023-05-04T06:32:47.349Z,51.44
2023-05-04T06:35:13.972Z,51.48
2023-05-04T06:37:40.588Z,51.26
2023-05-04T06:40:07.886Z,51.17
2023-05-04T06:42:34.552Z,51.17
2023-05-04T06:45:01.024Z,51.18
2023-05-04T06:47:27.434Z,51.10
2023-05-04T06:49:54.986Z,51.20
2023-05-04T06:52:21.658Z,51.06
2023-05-04T06:54:48.264Z,51.08
2023-05-04T06:57:14.964Z,50.93
2023-05-04T06:59:41.408Z,51.11
2023-05-04T07:02:07.760Z,51.03
2023-05-04T07:04:34.203Z,50.88
2023-05-04T07:07:00.516Z,50.69
2023-05-04T07:09:27.210Z,50.60
2023-05-04T07:11:53.553Z,50.36
2023-05-04T07:14:20.038Z,50.36
2023-05-04T07:16:46.456Z,50.29
2023-05-04T07:19:12.928Z,50.47
2023-05-04T07:21:39.344Z,50.48
2023-05-04T07:24:06.931Z,50.29
2023-05-04T07:26:36.168Z,50.33
2023-05-04T07:29:02.559Z,50.07
2023-05-04T07:31:30.605Z,49.89
2023-05-04T07:33:57.457Z,49.92
2023-05-04T07:36:26.512Z,49.91
2023-05-04T07:38:53.561Z,49.80
2023-05-04T07:41:20.267Z,49.46
2023-05-04T07:43:46.882Z,49.37
2023-05-04T07:46:13.592Z,49.09
2023-05-04T07:48:40.139Z,49.27
2023-05-04T07:51:06.504Z,49.12
2023-05-04T07:53:33.019Z,48.99
2023-05-04T07:56:07.744Z,49.16
2023-05-04T07:58:34.128Z,49.21
2023-05-04T08:01:00.671Z,49.06
2023-05-04T08:03:27.051Z,48.83
2023-05-04T08:05:53.522Z,48.74
2023-05-04T08:08:21.293Z,48.83
2023-05-04T08:10:48.217Z,48.55
2023-05-04T08:13:14.595Z,48.57
2023-05-04T08:15:41.282Z,48.31
2023-05-04T08:18:07.763Z,48.34
2023-05-04T08:20:34.418Z,48.32
2023-05-04T08:23:02.656Z,48.15
2023-05-04T08:25:29.474Z,48.05
2023-05-04T08:27:56.143Z,47.76
2023-05-04T08:30:23.182Z,47.31
2023-05-04T08:32:51.295Z,47.10
2023-05-04T08:35:17.847Z,47.22
2023-05-04T08:37:44.217Z,46.99
2023-05-04T08:40:12.423Z,47.24
2023-05-04T08:42:40.244Z,47.02
2023-05-04T08:45:07.461Z,46.49
2023-05-04T08:47:33.915Z,46.12
2023-05-04T08:50:00.930Z,45.65
2023-05-04T08:52:28.109Z,45.50
2023-05-04T08:54:56.655Z,45.46
2023-05-04T08:57:24.287Z,45.56
2023-05-04T08:59:53.326Z,45.40
2023-05-04T09:02:22.349Z,44.86
2023-05-04T09:04:49.950Z,44.89
2023-05-04T09:07:18.414Z,44.45
2023-05-04T09:09:45.410Z,44.75
2023-05-04T09:12:12.440Z,44.64
2023-05-04T09:14:39.356Z,44.77
2023-05-04T09:17:17.838Z,44.73
2023-05-04T09:19:44.624Z,44.92
2023-05-04T09:22:21.218Z,45.62
2023-05-04T09:24:47.725Z,45.10
2023-05-04T09:27:18.608Z,45.26
2023-05-04T09:29:53.539Z,44.69
2023-05-04T09:32:20.353Z,44.68
2023-05-04T09:34:54.513Z,44.63
2023-05-04T09:37:22.083Z,44.38
2023-05-04T09:39:58.670Z,44.08
2023-05-04T09:42:26.679Z,44.30
2023-05-04T09:45:01.562Z,44.24
2023-05-04T09:47:47.118Z,43.88
2023-05-04T09:50:15.099Z,43.87
2023-05-04T09:52:44.131Z,44.06
2023-05-04T09:55:13.496Z,44.40
2023-05-04T09:57:44.607Z,44.70
2023-05-04T10:00:16.149Z,44.76
2023-05-04T10:02:48.230Z,44.03
2023-05-04T10:05:17.244Z,44.38
2023-05-04T10:07:44.773Z,43.87
2023-05-04T10:10:15.759Z,43.27
2023-05-04T10:12:44.931Z,43.23
2023-05-04T10:15:12.300Z,43.53
2023-05-04T10:18:04.789Z,43.33
2023-05-04T10:20:52.585Z,42.96
2023-05-04T10:23:56.138Z,42.73
2023-05-04T10:26:51.314Z,42.08
2023-05-04T10:29:23.650Z,42.03
2023-05-04T10:31:51.130Z,42.11
2023-05-04T10:34:34.304Z,41.89
2023-05-04T10:37:03.011Z,42.20
2023-05-04T10:39:32.583Z,42.37
2023-05-04T10:42:02.039Z,42.22
2023-05-04T10:44:29.596Z,41.80
2023-05-04T10:47:04.197Z,41.31
2023-05-04T10:49:32.697Z,41.32
2023-05-04T10:52:08.747Z,40.67
2023-05-04T10:54:37.143Z,41.65
2023-05-04T10:57:05.489Z,41.42
2023-05-04T10:59:34.757Z,41.05
2023-05-04T11:02:03.546Z,40.77
2023-05-04T11:04:30.977Z,40.46
2023-05-04T11:07:01.766Z,39.75
2023-05-04T11:09:29.148Z,39.92
2023-05-04T11:11:56.270Z,38.92
2023-05-04T11:14:25.985Z,37.45
2023-05-04T11:16:53.443Z,37.76
2023-05-04T11:19:19.952Z,37.54
2023-05-04T11:21:46.988Z,37.77
2023-05-04T11:24:13.589Z,37.24
2023-05-04T11:26:48.813Z,36.88
2023-05-04T11:29:15.826Z,36.69
2023-05-04T11:31:44.317Z,36.33
2023-05-04T11:34:18.982Z,35.67
2023-05-04T11:36:45.379Z,35.05
2023-05-04T11:39:11.978Z,34.46
2023-05-04T11:41:38.605Z,34.44
2023-05-04T11:44:06.367Z,35.14
2023-05-04T11:46:34.345Z,34.83
2023-05-04T11:49:01.188Z,34.37
2023-05-04T11:51:29.099Z,34.77
2023-05-04T11:53:56.628Z,34.37
2023-05-04T11:56:23.039Z,34.48
2023-05-04T11:58:49.477Z,33.51
2023-05-04T12:01:15.940Z,33.69
2023-05-04T12:03:52.448Z,34.16
2023-05-04T12:06:30.238Z,34.04
2023-05-04T12:09:01.930Z,33.54
2023-05-04T12:11:28.688Z,33.95
2023-05-04T12:14:04.106Z,32.46
2023-05-04T12:16:30.665Z,32.88
2023-05-04T12:19:05.944Z,31.78
2023-05-04T12:21:33.526Z,32.46
2023-05-04T12:24:00.301Z,32.95
2023-05-04T12:26:27.520Z,32.43
2023-05-04T12:28:54.049Z,31.45
2023-05-04T12:31:21.292Z,31.27
2023-05-04T12:33:50.164Z,30.47
2023-05-04T12:36:17.245Z,30.10
2023-05-04T12:38:43.541Z,30.02
2023-05-04T12:41:11.296Z,29.26
2023-05-04T12:43:38.209Z,29.11
2023-05-04T12:46:04.659Z,28.82
2023-05-04T12:48:32.486Z,28.86
2023-05-04T12:50:59.850Z,28.22
2023-05-04T12:53:31.850Z,28.20
2023-05-04T12:56:02.174Z,27.20
2023-05-04T12:58:28.701Z,27.58
2023-05-04T13:00:56.043Z,27.04
2023-05-04T13:03:22.677Z,27.25
2023-05-04T13:05:49.685Z,27.28
2023-05-04T13:08:17.335Z,26.61
2023-05-04T13:10:43.751Z,26.88
2023-05-04T13:13:10.114Z,26.94
2023-05-04T13:15:36.507Z,26.39
2023-05-04T13:18:03.007Z,26.05
2023-05-04T13:20:29.519Z,26.66
2023-05-04T13:22:58.323Z,25.96
2023-05-04T13:25:25.517Z,25.31
2023-05-04T13:27:52.600Z,24.67
2023-05-04T13:30:20.426Z,24.58
2023-05-04T13:32:46.911Z,23.88
2023-05-04T13:35:13.476Z,24.62
2023-05-04T13:37:39.794Z,23.92
2023-05-04T13:40:06.754Z,24.05
2023-05-04T13:42:35.033Z,24.34
2023-05-04T13:45:03.051Z,23.32
2023-05-04T13:47:29.524Z,23.00
2023-05-04T13:49:55.909Z,23.03
2023-05-04T13:52:22.369Z,22.93
2023-05-04T13:54:49.416Z,22.97
2023-05-04T13:57:15.870Z,22.72
2023-05-04T13:59:48.820Z,22.85
2023-05-04T14:02:25.185Z,22.35
2023-05-04T14:04:51.765Z,22.02
2023-05-04T14:07:18.358Z,21.94
2023-05-04T14:09:44.824Z,22.30
2023-05-04T14:12:11.195Z,22.03
2023-05-04T14:14:37.558Z,21.15
2023-05-04T14:17:04.077Z,21.51
2023-05-04T14:19:30.507Z,21.45
2023-05-04T14:21:56.946Z,21.65
2023-05-04T14:24:24.665Z,21.42
2023-05-04T14:26:51.167Z,21.58
2023-05-04T14:29:17.518Z,21.95
2023-05-04T14:31:43.924Z,21.95
2023-05-04T14:34:10.804Z,21.80
2023-05-04T14:36:37.238Z,21.39
2023-05-04T14:39:03.794Z,21.13
2023-05-04T14:41:33.685Z,21.54
2023-05-04T14:44:00.548Z,20.73
2023-05-04T14:46:29.220Z,20.84
2023-05-04T14:48:55.802Z,21.22
2023-05-04T14:51:23.631Z,20.95
2023-05-04T14:53:50.525Z,21.12
2023-05-04T14:56:16.935Z,21.37
2023-05-04T14:58:43.525Z,21.42
2023-05-04T15:01:09.961Z,21.19
2023-05-04T15:03:36.423Z,21.38
2023-05-04T15:06:03.565Z,21.29
2023-05-04T15:08:30.099Z,21.23
2023-05-04T15:10:59.860Z,21.83
2023-05-04T15:13:26.532Z,21.80
2023-05-04T15:15:52.987Z,22.04
2023-05-04T15:18:20.826Z,22.26
2023-05-04T15:20:47.224Z,22.34
2023-05-04T15:23:13.562Z,22.72
2023-05-04T15:25:40.953Z,22.65
2023-05-04T15:28:10.497Z,22.79
2023-05-04T15:30:39.972Z,22.22
2023-05-04T15:33:06.995Z,21.77
2023-05-04T15:35:35.003Z,22.06
2023-05-04T15:38:01.840Z,21.82
2023-05-04T15:40:29.093Z,21.80
2023-05-04T15:42:56.023Z,21.58
2023-05-04T15:45:22.483Z,21.82
2023-05-04T15:47:49.241Z,22.16
2023-05-04T15:50:15.820Z,21.78
2023-05-04T15:52:42.192Z,21.36
2023-05-04T15:55:24.254Z,21.53
2023-05-04T15:57:52.312Z,21.63
2023-05-04T16:00:19.102Z,21.40
2023-05-04T16:02:45.516Z,21.56
2023-05-04T16:05:12.019Z,21.77
2023-05-04T16:07:38.499Z,21.52
2023-05-04T16:10:05.720Z,22.00
2023-05-04T16:12:32.267Z,21.80
2023-05-04T16:14:58.684Z,22.05
2023-05-04T16:17:25.662Z,22.46
2023-05-04T16:19:52.070Z,22.58
2023-05-04T16:22:18.436Z,22.41
2023-05-04T16:24:44.728Z,22.77
2023-05-04T16:27:11.018Z,23.10
2023-05-04T16:29:37.399Z,22.62
2023-05-04T16:32:03.922Z,22.48
2023-05-04T16:34:30.441Z,23.26
2023-05-04T16:36:56.765Z,23.29
2023-05-04T16:39:26.987Z,23.50
2023-05-04T16:41:53.286Z,24.03
2023-05-04T16:44:19.604Z,23.87
2023-05-04T16:46:46.249Z,24.27
2023-05-04T16:49:14.669Z,24.94
2023-05-04T16:51:41.453Z,25.24
2023-05-04T16:54:07.808Z,25.27
2023-05-04T16:56:34.213Z,25.60
2023-05-04T16:59:00.966Z,26.17
2023-05-04T17:01:27.324Z,26.20
2023-05-04T17:03:53.910Z,26.39
2023-05-04T17:06:20.592Z,26.69
2023-05-04T17:08:46.983Z,27.04
2023-05-04T17:11:13.343Z,27.24
2023-05-04T17:13:39.739Z,27.43
2023-05-04T17:16:06.639Z,28.02
2023-05-04T17:18:33.145Z,27.92
2023-05-04T17:20:59.513Z,28.11
2023-05-04T17:23:25.945Z,28.20
2023-05-04T17:25:52.334Z,28.80
2023-05-04T17:28:18.773Z,28.76
2023-05-04T17:30:45.277Z,28.71
2023-05-04T17:33:11.754Z,28.79
2023-05-04T17:35:38.207Z,29.38
2023-05-04T17:38:04.720Z,29.26
2023-05-04T17:40:31.185Z,29.46
2023-05-04T17:42:57.691Z,29.96
2023-05-04T17:45:24.175Z,29.71
2023-05-04T17:47:51.215Z,29.94
2023-05-04T17:50:17.689Z,29.88
2023-05-04T17:52:44.127Z,29.99
2023-05-04T17:57:57.232Z,30.35
2023-05-04T18:00:24.173Z,30.57
2023-05-04T18:02:50.962Z,30.65
2023-05-04T18:05:17.704Z,31.03
2023-05-04T18:07:44.259Z,30.89
2023-05-04T18:10:11.183Z,31.16
2023-05-04T18:12:38.481Z,31.41
2023-05-04T18:15:08.394Z,31.63
2023-05-04T18:17:37.849Z,31.72
2023-05-04T18:20:07.286Z,31.92
2023-05-04T18:22:34.399Z,32.03
2023-05-04T18:25:01.669Z,32.11
2023-05-04T18:27:33.518Z,33.02
2023-05-04T18:30:00.878Z,32.66
2023-05-04T18:32:27.645Z,32.59
2023-05-04T18:34:54.804Z,32.90
2023-05-04T18:37:21.618Z,33.07
2023-05-04T18:39:48.085Z,33.13
2023-05-04T18:42:14.619Z,33.20
2023-05-04T18:44:41.437Z,33.23
2023-05-04T18:47:08.531Z,33.54
2023-05-04T18:49:35.009Z,33.85
2023-05-04T18:52:01.962Z,33.91
2023-05-04T18:54:32.367Z,34.39
2023-05-04T18:56:59.211Z,34.16
2023-05-04T18:59:26.092Z,34.13
2023-05-04T19:01:53.052Z,34.59
2023-05-04T19:04:19.758Z,34.51
2023-05-04T19:06:47.677Z,34.86
2023-05-04T19:09:14.902Z,34.85
2023-05-04T19:11:41.582Z,34.89
2023-05-04T19:14:08.080Z,35.24
2023-05-04T19:16:34.736Z,35.07
2023-05-04T19:19:01.314Z,35.49
2023-05-04T19:21:28.448Z,35.33
2023-05-04T19:23:55.006Z,35.36
2023-05-04T19:26:21.898Z,35.76
2023-05-04T19:28:48.373Z,35.80
2023-05-04T19:31:15.526Z,36.07
2023-05-04T19:33:48.589Z,36.30
2023-05-04T19:36:16.802Z,36.36
2023-05-04T19:38:43.522Z,36.42
2023-05-04T19:41:10.086Z,36.69
2023-05-04T19:43:38.453Z,36.62
2023-05-04T19:46:05.125Z,36.93
2023-05-04T19:48:31.821Z,36.92
2023-05-04T19:50:58.453Z,37.21
2023-05-04T19:53:25.192Z,37.24
2023-05-04T19:55:51.743Z,37.23
2023-05-04T19:58:19.699Z,37.63
2023-05-04T20:00:46.507Z,37.77
2023-05-04T20:03:13.074Z,37.76
2023-05-04T20:05:40.402Z,37.85
2023-05-04T20:08:06.946Z,37.70
2023-05-04T20:10:33.639Z,37.96
2023-05-04T20:13:00.165Z,38.20
2023-05-04T20:15:26.955Z,38.34
2023-05-04T20:17:53.490Z,38.22
2023-05-04T20:20:21.523Z,38.61
2023-05-04T20:22:51.911Z,38.87
2023-05-04T20:25:19.943Z,38.65
2023-05-04T20:27:48.715Z,38.70
2023-05-04T20:30:15.323Z,39.10
2023-05-04T20:32:42.203Z,38.79
2023-05-04T20:35:13.992Z,39.75
2023-05-04T20:37:40.433Z,39.05
2023-05-04T20:40:08.310Z,39.63
2023-05-04T20:42:35.037Z,39.53
2023-05-04T20:45:01.619Z,39.62
2023-05-04T20:47:28.544Z,39.71
2023-05-04T20:49:55.105Z,39.83
2023-05-04T20:52:21.597Z,39.88
2023-05-04T20:54:48.094Z,40.10
2023-05-04T20:57:14.705Z,40.14
2023-05-04T20:59:41.199Z,40.23
2023-05-04T21:02:07.891Z,40.53
2023-05-04T21:04:34.363Z,40.48
2023-05-04T21:07:00.976Z,40.72
2023-05-04T21:09:27.990Z,40.84
2023-05-04T21:11:54.698Z,40.64
2023-05-04T21:14:21.381Z,40.75
2023-05-04T21:16:47.966Z,40.87
2023-05-04T21:19:14.516Z,40.90
2023-05-04T21:21:41.338Z,41.01
2023-05-04T21:24:13.150Z,41.64
2023-05-04T21:26:40.242Z,41.08
2023-05-04T21:29:11.602Z,41.85
2023-05-04T21:31:38.104Z,41.22
2023-05-04T21:34:04.898Z,41.55
2023-05-04T21:36:31.701Z,41.51
2023-05-04T21:38:58.577Z,41.52
2023-05-04T21:41:25.255Z,41.71
2023-05-04T21:43:51.778Z,41.48
2023-05-04T21:46:18.291Z,41.73
2023-05-04T21:48:44.830Z,41.81
2023-05-04T21:51:11.257Z,42.09
2023-05-04T21:53:37.805Z,41.86
2023-05-04T21:56:08.710Z,42.23
2023-05-04T21:58:37.978Z,42.21
2023-05-04T22:01:05.673Z,42.04
2023-05-04T22:03:32.386Z,41.98
2023-05-04T22:05:59.147Z,42.18
2023-05-04T22:08:26.189Z,42.41
2023-05-04T22:10:54.441Z,42.68
2023-05-04T22:13:21.313Z,42.26
2023-05-04T22:15:50.267Z,42.58
2023-05-04T22:18:17.277Z,42.52
2023-05-04T22:20:44.013Z,42.41
2023-05-04T22:23:11.039Z,42.69
2023-05-04T22:25:38.286Z,42.66
2023-05-04T22:28:05.073Z,42.84
2023-05-04T22:30:32.354Z,42.85
2023-05-04T22:32:59.094Z,42.87
2023-05-04T22:35:25.643Z,43.01
2023-05-04T22:37:52.305Z,42.89
2023-05-04T22:40:19.092Z,43.25
2023-05-04T22:42:45.732Z,43.08
2023-05-04T22:45:14.342Z,43.30
2023-05-04T22:47:41.731Z,43.27
2023-05-04T22:50:09.630Z,43.41
2023-05-04T22:52:36.736Z,43.53
2023-05-04T22:55:03.964Z,43.57
2023-05-04T22:57:30.643Z,43.62
2023-05-04T22:59:57.460Z,43.46
2023-05-04T23:02:24.565Z,43.65
2023-05-04T23:04:51.076Z,43.73
2023-05-04T23:07:17.706Z,43.80
2023-05-04T23:09:47.437Z,44.30
2023-05-04T23:12:15.164Z,43.88
2023-05-04T23:14:41.990Z,43.93
2023-05-04T23:17:09.563Z,43.85
2023-05-04T23:19:36.579Z,43.93
2023-05-04T23:22:03.118Z,44.06
2023-05-04T23:24:29.658Z,44.08
2023-05-04T23:26:56.096Z,44.04
2023-05-04T23:29:22.598Z,44.07
2023-05-04T23:31:49.160Z,43.54
2023-05-04T23:34:16.198Z,44.12
2023-05-04T23:36:42.633Z,44.02
2023-05-04T23:39:09.268Z,44.22
2023-05-04T23:41:35.853Z,44.19
2023-05-04T23:44:03.350Z,44.15
2023-05-04T23:46:30.081Z,44.22
2023-05-04T23:48:56.731Z,44.21
2023-05-04T23:51:23.376Z,44.22
2023-05-04T23:53:49.940Z,44.34
2023-05-04T23:58:57.911Z,44.33
